North Ogden, Utah
Current Conditions -  °F | °C
As of 6:53 PM on Friday 24 Oct 2014 (Local Time) from KOGD Reporting Station
Clear Clear  
Wind Chill: 66°   Ceiling: Unl
Heat Index: 66°   Visibility: 10mi
Dew Point: 39°   Wind: 6mph
Humidity: 37%   Direction: 60°ENE
Pressure: 30.09"   Gusts: NA
Location:  41.3178°N, 111.954°W
Report Text: KOGD 250053Z 06005KT 10SM CLR 19/04 A3009 RMK AO2 RAB16E24 SLP155 P0000 T01890039
Loading
Personal Weather Stations






























Interactive Weather Map
Tropical Storm Tracking
New forecast layout! Learn more

10-Day Weather Forecast

Advertisements
Track Severe Weather on mobile